createdAt,value
2022-12-20T00:02:15.957Z,-50
2022-12-20T00:32:25.799Z,-51
2022-12-20T01:02:32.648Z,-50
2022-12-20T01:32:40.991Z,-51
2022-12-20T02:02:44.237Z,-52
2022-12-20T02:32:54.285Z,-50
2022-12-20T03:02:57.269Z,-51
2022-12-20T03:32:58.804Z,-51
2022-12-20T04:03:07.957Z,-54
2022-12-20T04:33:14.749Z,-52
2022-12-20T05:03:16.757Z,-51
2022-12-20T05:33:19.737Z,-52
2022-12-20T06:03:22.369Z,-51
2022-12-20T06:33:40.207Z,-51
2022-12-20T07:03:42.997Z,-52
2022-12-20T07:33:48.320Z,-52
2022-12-20T08:03:50.360Z,-54
2022-12-20T08:33:55.692Z,-52
2022-12-20T09:04:00.493Z,-51
2022-12-20T09:34:03.825Z,-50
2022-12-20T10:09:52.005Z,-53
2022-12-20T10:40:07.204Z,-51
2022-12-20T11:10:10.746Z,-52
2022-12-20T11:40:19.066Z,-52
2022-12-20T12:10:21.677Z,-51
2022-12-20T12:40:33.388Z,-54
2022-12-20T13:13:46.771Z,-56
2022-12-20T13:43:57.271Z,-54
2022-12-20T14:14:02.147Z,-56
2022-12-20T14:44:07.400Z,-54
2022-12-20T15:14:11.000Z,-56
2022-12-20T15:44:15.662Z,-55
2022-12-20T16:14:32.205Z,-55
2022-12-20T16:44:42.638Z,-55
2022-12-20T17:11:15.750Z,-57
2022-12-20T17:11:35.230Z,-56
2022-12-20T17:42:00.417Z,-56
2022-12-20T18:12:18.013Z,-55
2022-12-20T18:42:21.724Z,-56
2022-12-20T19:12:26.846Z,-56
2022-12-20T19:42:38.676Z,-55
2022-12-20T19:42:58.231Z,-56
2022-12-20T19:43:08.892Z,-56
2022-12-20T19:43:29.328Z,-56
2022-12-20T19:43:38.624Z,-56
2022-12-20T19:43:49.636Z,-56
2022-12-20T19:43:59.824Z,-56
2022-12-20T19:44:10.649Z,-56
2022-12-20T19:44:30.234Z,-57
2022-12-20T19:44:40.777Z,-56
2022-12-20T19:44:51.670Z,-55
2022-12-20T19:45:03.406Z,-57
2022-12-20T19:45:13.661Z,-55
2022-12-20T19:45:23.624Z,-55
2022-12-20T19:45:34.027Z,-56
2022-12-20T19:45:44.666Z,-56
2022-12-20T19:45:54.625Z,-56
2022-12-20T20:32:33.745Z,-56
2022-12-20T21:02:52.243Z,-55
2022-12-20T21:32:57.076Z,-56
2022-12-20T22:03:07.019Z,-56
2022-12-20T22:33:10.644Z,-57
2022-12-20T23:03:12.718Z,-56
2022-12-20T23:33:17.639Z,-56
